createdAt,value
2023-06-24T00:02:56.201Z,19.43
2023-06-24T00:06:27.431Z,19.40
2023-06-24T00:09:54.753Z,19.36
2023-06-24T00:13:23.795Z,19.34
2023-06-24T00:16:52.847Z,19.30
2023-06-24T00:20:21.566Z,19.27
2023-06-24T00:23:50.807Z,19.23
2023-06-24T00:27:18.358Z,19.19
2023-06-24T00:30:45.296Z,19.12
2023-06-24T00:34:13.811Z,19.07
2023-06-24T00:37:41.288Z,19.03
2023-06-24T00:41:08.962Z,19.03
2023-06-24T00:44:38.867Z,19.02
2023-06-24T00:48:06.468Z,19.03
2023-06-24T00:51:35.451Z,19.03
2023-06-24T00:55:04.766Z,19.07
2023-06-24T00:58:34.298Z,19.09
2023-06-24T01:02:03.306Z,19.10
2023-06-24T01:05:31.411Z,19.11
2023-06-24T01:08:58.819Z,19.11
2023-06-24T01:12:25.607Z,19.10
2023-06-24T01:15:53.580Z,19.06
2023-06-24T01:19:39.625Z,19.04
2023-06-24T01:23:45.906Z,19.00
2023-06-24T01:27:47.601Z,18.96
2023-06-24T01:31:39.944Z,18.93
2023-06-24T01:35:14.255Z,18.90
2023-06-24T01:38:46.620Z,18.86
2023-06-24T01:42:17.540Z,18.83
2023-06-24T01:45:49.393Z,18.80
2023-06-24T01:49:18.486Z,18.77
2023-06-24T01:52:48.253Z,18.77
2023-06-24T01:56:17.167Z,18.77
2023-06-24T01:59:48.676Z,18.79
2023-06-24T02:03:17.367Z,18.82
2023-06-24T02:06:45.935Z,18.84
2023-06-24T02:10:14.546Z,18.86
2023-06-24T02:13:43.145Z,18.86
2023-06-24T02:17:25.969Z,18.85
2023-06-24T02:20:54.403Z,18.83
2023-06-24T02:24:23.324Z,18.81
2023-06-24T02:27:51.066Z,18.80
2023-06-24T02:31:18.994Z,18.78
2023-06-24T02:34:46.406Z,18.74
2023-06-24T02:38:13.307Z,18.70
2023-06-24T02:41:39.946Z,18.65
2023-06-24T02:45:11.050Z,18.62
2023-06-24T02:48:40.374Z,18.59
2023-06-24T02:52:08.277Z,18.57
2023-06-24T02:55:37.545Z,18.54
2023-06-24T02:59:04.922Z,18.52
2023-06-24T03:02:32.389Z,18.52
2023-06-24T03:06:00.028Z,18.52
2023-06-24T03:09:31.210Z,18.54
2023-06-24T03:12:57.926Z,18.56
2023-06-24T03:16:32.275Z,18.57
2023-06-24T03:20:09.930Z,18.56
2023-06-24T03:23:37.271Z,18.54
2023-06-24T03:27:04.171Z,18.50
2023-06-24T03:30:37.612Z,18.46
2023-06-24T03:34:05.091Z,18.43
2023-06-24T03:37:32.553Z,18.41
2023-06-24T03:41:00.063Z,18.38
2023-06-24T03:44:27.666Z,18.35
2023-06-24T03:47:54.662Z,18.30
2023-06-24T03:51:21.878Z,18.27
2023-06-24T03:54:49.258Z,18.26
2023-06-24T03:58:18.018Z,18.24
2023-06-24T04:01:44.563Z,18.19
2023-06-24T04:05:12.802Z,18.18
2023-06-24T04:08:41.340Z,18.21
2023-06-24T04:12:08.956Z,18.25
2023-06-24T04:15:35.951Z,18.27
2023-06-24T04:19:02.879Z,18.29
2023-06-24T04:22:30.076Z,18.34
2023-06-24T04:25:58.953Z,18.36
2023-06-24T04:29:25.971Z,18.39
2023-06-24T04:32:52.773Z,18.40
2023-06-24T04:36:20.593Z,18.39
2023-06-24T04:39:47.477Z,18.39
2023-06-24T04:43:14.118Z,18.42
2023-06-24T04:46:41.359Z,18.43
2023-06-24T04:50:10.902Z,18.46
2023-06-24T04:53:37.809Z,18.52
2023-06-24T04:57:05.612Z,18.59
2023-06-24T05:00:32.252Z,18.70
2023-06-24T05:03:58.900Z,18.78
2023-06-24T05:07:25.470Z,18.88
2023-06-24T05:10:51.963Z,18.97
2023-06-24T05:14:18.601Z,19.05
2023-06-24T05:17:45.295Z,19.12
2023-06-24T05:21:12.101Z,19.13
2023-06-24T05:24:39.048Z,19.17
2023-06-24T05:28:06.066Z,19.23
2023-06-24T05:31:32.864Z,19.28
2023-06-24T05:35:00.214Z,19.32
2023-06-24T05:38:26.971Z,19.39
2023-06-24T05:41:54.320Z,19.49
2023-06-24T05:45:20.966Z,19.55
2023-06-24T05:48:48.184Z,19.63
2023-06-24T05:52:14.784Z,19.69
2023-06-24T05:55:41.538Z,19.74
2023-06-24T05:59:08.123Z,19.79
2023-06-24T06:02:35.055Z,19.83
2023-06-24T06:06:02.571Z,19.87
2023-06-24T06:09:29.663Z,19.90
2023-06-24T06:12:56.682Z,19.93
2023-06-24T06:16:23.314Z,19.96
2023-06-24T06:19:52.366Z,19.99
2023-06-24T06:23:20.620Z,20.03
2023-06-24T06:26:48.184Z,20.05
2023-06-24T06:30:18.925Z,20.08
2023-06-24T06:33:46.048Z,20.08
2023-06-24T06:37:13.340Z,20.09
2023-06-24T06:40:40.084Z,20.06
2023-06-24T06:44:07.606Z,20.09
2023-06-24T06:47:34.557Z,20.12
2023-06-24T06:51:01.255Z,20.19
2023-06-24T06:54:27.903Z,20.28
2023-06-24T06:57:55.333Z,20.38
2023-06-24T07:01:22.181Z,20.43
2023-06-24T07:04:49.598Z,20.66
2023-06-24T07:08:16.529Z,20.93
2023-06-24T07:11:43.159Z,21.21
2023-06-24T07:15:13.157Z,21.41
2023-06-24T07:18:40.451Z,21.53
2023-06-24T07:22:07.715Z,21.61
2023-06-24T07:25:36.096Z,21.67
2023-06-24T07:29:09.226Z,21.68
2023-06-24T07:32:34.980Z,21.71
2023-06-24T07:36:01.857Z,21.77
2023-06-24T07:39:29.056Z,21.87
2023-06-24T07:42:55.644Z,21.96
2023-06-24T07:46:22.694Z,22.07
2023-06-24T07:49:49.617Z,22.11
2023-06-24T07:53:17.381Z,22.16
2023-06-24T07:56:44.054Z,22.18
2023-06-24T08:00:13.894Z,22.19
2023-06-24T08:03:40.925Z,22.20
2023-06-24T08:07:09.500Z,22.22
2023-06-24T08:10:36.824Z,22.24
2023-06-24T08:14:05.374Z,22.28
2023-06-24T08:17:32.260Z,22.23
2023-06-24T08:21:00.195Z,22.15
2023-06-24T08:24:27.176Z,22.21
2023-06-24T08:27:53.929Z,22.24
2023-06-24T08:31:24.068Z,22.31
2023-06-24T08:34:51.233Z,22.43
2023-06-24T08:38:18.999Z,22.55
2023-06-24T08:41:46.144Z,22.65
2023-06-24T08:45:14.298Z,22.71
2023-06-24T08:48:45.128Z,22.75
2023-06-24T08:52:17.707Z,22.82
2023-06-24T08:55:48.862Z,22.91
2023-06-24T08:59:20.739Z,22.98
2023-06-24T09:02:48.110Z,23.03
2023-06-24T09:06:15.216Z,23.12
2023-06-24T09:09:47.743Z,23.21
2023-06-24T09:13:14.870Z,23.23
2023-06-24T09:16:41.810Z,23.29
2023-06-24T09:20:12.384Z,23.36
2023-06-24T09:23:41.359Z,23.46
2023-06-24T09:27:12.763Z,23.53
2023-06-24T09:30:40.437Z,23.62
2023-06-24T09:34:07.840Z,23.58
2023-06-24T09:37:37.381Z,23.50
2023-06-24T09:41:13.711Z,23.62
2023-06-24T09:44:41.587Z,23.83
2023-06-24T09:48:09.379Z,24.03
2023-06-24T09:51:40.460Z,24.16
2023-06-24T09:55:13.402Z,24.19
2023-06-24T09:58:43.748Z,24.26
2023-06-24T10:02:16.759Z,24.32
2023-06-24T10:05:45.571Z,24.41
2023-06-24T10:09:16.732Z,24.57
2023-06-24T10:12:45.780Z,24.71
2023-06-24T10:16:13.046Z,24.70
2023-06-24T10:19:44.266Z,24.78
2023-06-24T10:23:11.811Z,24.95
2023-06-24T10:26:42.646Z,25.13
2023-06-24T10:30:19.285Z,25.37
2023-06-24T10:33:55.412Z,25.43
2023-06-24T10:37:26.026Z,25.46
2023-06-24T10:40:53.664Z,25.46
2023-06-24T10:44:21.866Z,25.39
2023-06-24T10:47:50.083Z,25.46
2023-06-24T10:51:17.751Z,25.66
2023-06-24T10:54:45.348Z,25.91
2023-06-24T10:58:16.857Z,26.13
2023-06-24T11:01:57.325Z,26.28
2023-06-24T11:05:24.138Z,26.25
2023-06-24T11:08:52.056Z,26.12
2023-06-24T11:12:19.188Z,26.10
2023-06-24T11:15:46.845Z,26.04
2023-06-24T11:19:14.045Z,26.31
2023-06-24T11:22:41.871Z,26.44
2023-06-24T11:26:09.347Z,26.57
2023-06-24T11:29:37.042Z,26.78
2023-06-24T11:33:04.198Z,26.84
2023-06-24T11:36:31.673Z,26.92
2023-06-24T11:40:07.384Z,26.87
2023-06-24T11:43:34.541Z,26.82
2023-06-24T11:47:14.507Z,26.66
2023-06-24T11:50:41.662Z,26.52
2023-06-24T11:54:09.584Z,26.45
2023-06-24T11:57:54.679Z,26.36
2023-06-24T12:01:22.133Z,26.31
2023-06-24T12:04:50.464Z,26.28
2023-06-24T12:08:18.141Z,26.28
2023-06-24T12:11:45.349Z,26.29
2023-06-24T12:15:13.117Z,26.30
2023-06-24T12:18:40.003Z,26.35
2023-06-24T12:22:07.306Z,26.46
2023-06-24T12:25:34.730Z,26.71
2023-06-24T12:29:01.858Z,27.12
2023-06-24T12:32:28.662Z,27.48
2023-06-24T12:35:55.957Z,27.90
2023-06-24T12:39:22.809Z,28.18
2023-06-24T12:42:49.937Z,28.49
2023-06-24T12:46:17.575Z,28.83
2023-06-24T12:49:46.486Z,29.20
2023-06-24T12:53:21.450Z,29.61
2023-06-24T12:56:49.198Z,29.90
2023-06-24T13:00:21.736Z,29.76
2023-06-24T13:03:48.659Z,29.61
2023-06-24T13:07:17.155Z,29.63
2023-06-24T13:10:45.394Z,29.64
2023-06-24T13:14:12.474Z,29.91
2023-06-24T13:17:39.656Z,30.17
2023-06-24T13:21:15.635Z,30.29
2023-06-24T13:24:43.768Z,30.54
2023-06-24T13:28:10.620Z,30.45
2023-06-24T13:31:37.680Z,30.15
2023-06-24T13:35:08.445Z,29.84
2023-06-24T13:38:35.700Z,29.50
2023-06-24T13:42:03.181Z,29.30
2023-06-24T13:45:30.050Z,29.07
2023-06-24T13:48:57.758Z,28.85
2023-06-24T13:52:24.754Z,28.60
2023-06-24T13:55:55.023Z,28.63
2023-06-24T13:59:22.612Z,29.03
2023-06-24T14:02:49.590Z,29.37
2023-06-24T14:06:21.012Z,29.45
2023-06-24T14:09:48.596Z,29.46
2023-06-24T14:13:18.299Z,29.52
2023-06-24T14:16:45.658Z,29.89
2023-06-24T14:20:14.590Z,30.37
2023-06-24T14:23:42.492Z,30.77
2023-06-24T14:27:11.392Z,30.95
2023-06-24T14:30:39.101Z,30.80
2023-06-24T14:34:06.529Z,30.51
2023-06-24T14:37:34.543Z,30.37
2023-06-24T14:41:01.856Z,30.14
2023-06-24T14:44:29.941Z,30.35
2023-06-24T14:47:58.891Z,30.43
2023-06-24T14:51:28.304Z,30.27
2023-06-24T14:55:11.230Z,30.44
2023-06-24T14:58:38.797Z,30.80
2023-06-24T15:02:07.047Z,31.17
2023-06-24T15:05:35.934Z,31.51
2023-06-24T15:09:03.564Z,31.77
2023-06-24T15:12:30.528Z,31.98
2023-06-24T15:15:57.999Z,32.17
2023-06-24T15:19:24.602Z,32.28
2023-06-24T15:22:51.918Z,32.40
2023-06-24T15:26:19.015Z,32.59
2023-06-24T15:29:46.076Z,32.78
2023-06-24T15:33:12.874Z,33.01
2023-06-24T15:36:41.762Z,33.14
2023-06-24T15:40:11.288Z,33.15
2023-06-24T15:43:39.028Z,33.15
2023-06-24T15:47:07.303Z,33.18
2023-06-24T15:50:34.388Z,33.19
2023-06-24T15:54:01.462Z,33.16
2023-06-24T15:57:28.512Z,33.05
2023-06-24T16:00:55.860Z,32.81
2023-06-24T16:04:23.153Z,32.41
2023-06-24T16:07:51.059Z,31.98
2023-06-24T16:11:18.498Z,31.62
2023-06-24T16:14:46.093Z,31.26
2023-06-24T16:18:12.977Z,30.98
2023-06-24T16:21:39.635Z,30.73
2023-06-24T16:25:07.012Z,30.63
2023-06-24T16:28:34.054Z,30.51
2023-06-24T16:32:03.394Z,30.39
2023-06-24T16:35:30.822Z,30.25
2023-06-24T16:38:58.004Z,30.10
2023-06-24T16:42:28.105Z,29.91
2023-06-24T16:45:55.814Z,29.64
2023-06-24T16:49:25.884Z,29.37
2023-06-24T16:52:53.158Z,29.06
2023-06-24T16:56:19.810Z,28.73
2023-06-24T16:59:47.235Z,28.45
2023-06-24T17:03:15.186Z,28.22
2023-06-24T17:06:43.508Z,28.02
2023-06-24T17:10:14.788Z,27.81
2023-06-24T17:13:41.444Z,27.62
2023-06-24T17:17:08.406Z,27.43
2023-06-24T17:20:36.021Z,27.25
2023-06-24T17:24:03.346Z,27.10
2023-06-24T17:27:30.232Z,26.93
2023-06-24T17:30:57.301Z,26.75
2023-06-24T17:34:25.362Z,26.62
2023-06-24T17:37:52.259Z,26.52
2023-06-24T17:41:24.514Z,26.38
2023-06-24T17:44:51.452Z,26.23
2023-06-24T17:48:18.598Z,26.14
2023-06-24T17:51:45.760Z,26.03
2023-06-24T17:55:13.071Z,25.91
2023-06-24T17:58:39.569Z,25.78
2023-06-24T18:02:06.927Z,25.67
2023-06-24T18:05:34.302Z,25.55
2023-06-24T18:09:01.445Z,25.46
2023-06-24T18:12:28.899Z,25.36
2023-06-24T18:15:56.120Z,25.27
2023-06-24T18:19:23.929Z,25.16
2023-06-24T18:22:51.715Z,25.04
2023-06-24T18:26:18.780Z,24.94
2023-06-24T18:29:45.733Z,24.86
2023-06-24T18:33:12.675Z,24.78
2023-06-24T18:36:39.834Z,24.67
2023-06-24T18:40:09.232Z,24.55
2023-06-24T18:43:36.192Z,24.42
2023-06-24T18:47:03.405Z,24.34
2023-06-24T18:50:30.291Z,24.24
2023-06-24T18:53:57.879Z,24.09
2023-06-24T18:57:25.338Z,23.94
2023-06-24T19:00:54.031Z,23.80
2023-06-24T19:04:24.870Z,23.67
2023-06-24T19:07:52.570Z,23.57
2023-06-24T19:11:21.238Z,23.46
2023-06-24T19:14:49.630Z,23.35
2023-06-24T19:18:18.109Z,23.26
2023-06-24T19:21:46.174Z,23.16
2023-06-24T19:25:15.049Z,23.06
2023-06-24T19:28:42.285Z,22.94
2023-06-24T19:32:10.885Z,22.84
2023-06-24T19:35:38.041Z,22.76
2023-06-24T19:39:04.913Z,22.66
2023-06-24T19:42:32.664Z,22.55
2023-06-24T19:45:59.891Z,22.45
2023-06-24T19:49:27.357Z,22.35
2023-06-24T19:52:55.116Z,22.25
2023-06-24T19:56:21.876Z,22.13
2023-06-24T19:59:49.699Z,22.01
2023-06-24T20:03:16.985Z,21.90
2023-06-24T20:06:44.595Z,21.77
2023-06-24T20:10:14.198Z,21.66
2023-06-24T20:13:41.325Z,21.56
2023-06-24T20:17:09.783Z,21.46
2023-06-24T20:20:37.137Z,21.37
2023-06-24T20:24:07.472Z,21.27
2023-06-24T20:27:35.527Z,21.19
2023-06-24T20:31:04.154Z,21.08
2023-06-24T20:34:30.696Z,20.96
2023-06-24T20:37:57.232Z,20.83
2023-06-24T20:41:28.938Z,20.70
2023-06-24T20:44:55.965Z,20.58
2023-06-24T20:48:25.236Z,20.51
2023-06-24T20:51:53.263Z,20.44
2023-06-24T20:55:22.181Z,20.38
2023-06-24T20:58:49.293Z,20.31
2023-06-24T21:02:17.009Z,20.26
2023-06-24T21:05:48.543Z,20.21
2023-06-24T21:09:21.190Z,20.18
2023-06-24T21:16:21.206Z,20.09
2023-06-24T21:19:49.072Z,20.05
2023-06-24T21:23:17.149Z,19.99
2023-06-24T21:26:46.715Z,19.92
2023-06-24T21:30:16.446Z,19.85
2023-06-24T21:33:44.614Z,19.75
2023-06-24T21:37:12.065Z,19.66
2023-06-24T21:40:39.620Z,19.61
2023-06-24T21:44:07.291Z,19.53
2023-06-24T21:47:34.312Z,19.46
2023-06-24T21:51:02.063Z,19.38
2023-06-24T21:54:29.526Z,19.26
2023-06-24T21:57:57.810Z,19.11
2023-06-24T22:01:26.190Z,18.98
2023-06-24T22:04:52.909Z,18.88
2023-06-24T22:08:20.826Z,18.82
2023-06-24T22:11:48.469Z,18.76
2023-06-24T22:15:16.144Z,18.73
2023-06-24T22:18:43.033Z,18.68
2023-06-24T22:22:11.101Z,18.65
2023-06-24T22:25:42.598Z,18.61
2023-06-24T22:29:12.513Z,18.59
2023-06-24T22:32:39.886Z,18.55
2023-06-24T22:36:07.227Z,18.49
2023-06-24T22:39:34.381Z,18.40
2023-06-24T22:43:02.569Z,18.35
2023-06-24T22:46:29.758Z,18.33
2023-06-24T22:49:56.428Z,18.33
2023-06-24T22:53:23.730Z,18.30
2023-06-24T22:56:51.346Z,18.25
2023-06-24T23:00:20.077Z,18.20
2023-06-24T23:03:51.923Z,18.14
2023-06-24T23:07:20.029Z,18.07
2023-06-24T23:10:48.252Z,17.92
2023-06-24T23:14:15.954Z,17.80
2023-06-24T23:17:43.298Z,17.69
2023-06-24T23:21:12.875Z,17.57
2023-06-24T23:24:40.554Z,17.46
2023-06-24T23:28:07.178Z,17.35
2023-06-24T23:31:40.053Z,17.24
2023-06-24T23:35:09.117Z,17.15
2023-06-24T23:38:37.661Z,17.08
2023-06-24T23:42:06.922Z,17.00
2023-06-24T23:45:34.733Z,16.94
2023-06-24T23:49:01.754Z,16.88
2023-06-24T23:52:28.437Z,16.84
2023-06-24T23:55:55.923Z,16.82
2023-06-24T23:59:23.815Z,16.78
